Airport Name : Fujairah Intl

Other Name : Fujairah Intl

ICAO : OMFJ

IATA : FJR

FAA :

Latitude : 25.112225

Longitude : 56.323964

Country : United Arab Emirates

Local Date and Time : 29 Oct 2020 17:46

 

TAF (Terminal Aerodrome Forecast)

TAF OMFJ 291100Z 2912/3018 09005KT CAVOK BECMG 2914/2916 VRB02KT BECMG 2919/2921 29005KT BECMG 3005/3007 10007KT

 

METAR (METeorological Aerodrome Report)

OMFJ 291300Z 13004KT CAVOK 31/04 Q1014 A2994

OMFJ 291150Z 12005KT 070V190 CAVOK 32/08 Q1014 RMK A2994

OMFJ 291100Z 07005KT 020V140 CAVOK 33/10 Q1014 A2944

OMFJ 290950Z 11005KT 070V150 CAVOK 33/08 Q1014 RMK A2995

To Charter a Jet Click here.